GJAZX EGJJ-EGHI
Flight info
| Callsign | GJAZX |
|---|---|
| Flight time | 0h 32m |
| Altitude | 13000 |
| Route | ORTAC Q41 THRED |
| Aircraft | E55P/M-BSDGRWXY/LB2 |
Departure
| Time | 2026-05-08 12:54 |
|---|---|
| Airport | Jersey Airport (EGJJ) |
Arrival
| Time | 2026-05-08 13:26 |
|---|---|
| Airport | Southampton Airport (EGHI) |
| Time | Latitude | Longitude | Altitude | Speed | Heading |
|---|---|---|---|---|---|
| 2026-05-08 12:30 | 49.20375 | -2.19591 | 264 ft | 0 kts | 196° |
| 2026-05-08 12:46 | 49.20374 | -2.19591 | 264 ft | 0 kts | 196° |
| 2026-05-08 12:46 | 49.20370 | -2.19593 | 264 ft | 0 kts | 195° |
| 2026-05-08 12:47 | 49.20382 | -2.19588 | 264 ft | 2 kts | 197° |
| 2026-05-08 12:47 | 49.20396 | -2.19581 | 265 ft | 2 kts | 197° |
| 2026-05-08 12:47 | 49.20410 | -2.19575 | 265 ft | 2 kts | 206° |
| 2026-05-08 12:47 | 49.20419 | -2.19557 | 265 ft | 2 kts | 260° |
| 2026-05-08 12:48 | 49.20418 | -2.19543 | 265 ft | 0 kts | 284° |
| 2026-05-08 12:49 | 49.20418 | -2.19545 | 265 ft | 0 kts | 284° |
| 2026-05-08 12:49 | 49.20425 | -2.19582 | 265 ft | 7 kts | 284° |
| 2026-05-08 12:50 | 49.20440 | -2.19689 | 265 ft | 11 kts | 268° |
| 2026-05-08 12:50 | 49.20436 | -2.19769 | 265 ft | 14 kts | 264° |
| 2026-05-08 12:50 | 49.20445 | -2.19913 | 263 ft | 8 kts | 333° |
| 2026-05-08 12:50 | 49.20513 | -2.19974 | 263 ft | 14 kts | 286° |
| 2026-05-08 12:51 | 49.20542 | -2.20127 | 263 ft | 15 kts | 287° |
| 2026-05-08 12:51 | 49.20612 | -2.20489 | 254 ft | 19 kts | 285° |
| 2026-05-08 12:51 | 49.20619 | -2.20530 | 251 ft | 3 kts | 285° |
| 2026-05-08 12:52 | 49.20620 | -2.20532 | 251 ft | 0 kts | 285° |
| 2026-05-08 12:52 | 49.20631 | -2.20677 | 242 ft | 11 kts | 300° |
| 2026-05-08 12:52 | 49.20690 | -2.20700 | 242 ft | 5 kts | 41° |
| 2026-05-08 12:53 | 49.20701 | -2.20671 | 244 ft | 2 kts | 76° |
| 2026-05-08 12:53 | 49.20702 | -2.20664 | 244 ft | 0 kts | 82° |
| 2026-05-08 12:53 | 49.20721 | -2.20437 | 256 ft | 60 kts | 82° |
| 2026-05-08 12:53 | 49.20808 | -2.19418 | 347 ft | 122 kts | 85° |
| 2026-05-08 12:54 | 49.20924 | -2.18080 | 1050 ft | 134 kts | 87° |
| 2026-05-08 12:54 | 49.21046 | -2.16744 | 1885 ft | 135 kts | 82° |
| 2026-05-08 12:54 | 49.21581 | -2.15387 | 2336 ft | 173 kts | 44° |
| 2026-05-08 12:54 | 49.22639 | -2.14269 | 2933 ft | 199 kts | 37° |
| 2026-05-08 12:55 | 49.23857 | -2.13031 | 3564 ft | 223 kts | 37° |
| 2026-05-08 12:55 | 49.25190 | -2.11676 | 4287 ft | 241 kts | 37° |
| 2026-05-08 12:55 | 49.26602 | -2.10240 | 5205 ft | 249 kts | 36° |
| 2026-05-08 12:55 | 49.28024 | -2.08790 | 6279 ft | 250 kts | 36° |
| 2026-05-08 12:56 | 49.29459 | -2.07324 | 7327 ft | 253 kts | 35° |
| 2026-05-08 12:56 | 49.30911 | -2.05841 | 8304 ft | 257 kts | 35° |
| 2026-05-08 12:56 | 49.32501 | -2.04605 | 9339 ft | 262 kts | 18° |
| 2026-05-08 12:56 | 49.34286 | -2.04089 | 10218 ft | 270 kts | 5° |
| 2026-05-08 12:57 | 49.36257 | -2.03926 | 10646 ft | 297 kts | 2° |
| 2026-05-08 12:57 | 49.38353 | -2.03806 | 11357 ft | 307 kts | 2° |
| 2026-05-08 12:57 | 49.40458 | -2.03695 | 12402 ft | 305 kts | 1° |
| 2026-05-08 12:57 | 49.42566 | -2.03583 | 13410 ft | 307 kts | 1° |
| 2026-05-08 12:58 | 49.44704 | -2.03469 | 14276 ft | 312 kts | 1° |
| 2026-05-08 12:58 | 49.46889 | -2.03352 | 14912 ft | 325 kts | 1° |
| 2026-05-08 12:58 | 49.49207 | -2.03228 | 15023 ft | 336 kts | 1° |
| 2026-05-08 12:58 | 49.51539 | -2.03103 | 15032 ft | 335 kts | 1° |
| 2026-05-08 12:59 | 49.53858 | -2.02979 | 15034 ft | 334 kts | 1° |
| 2026-05-08 12:59 | 49.56171 | -2.02854 | 15013 ft | 332 kts | 1° |
| 2026-05-08 12:59 | 49.58466 | -2.02731 | 15019 ft | 330 kts | 1° |
| 2026-05-08 12:59 | 49.60755 | -2.02608 | 15006 ft | 329 kts | 2° |
| 2026-05-08 13:00 | 49.63029 | -2.02486 | 14988 ft | 326 kts | 2° |
| 2026-05-08 13:00 | 49.65289 | -2.02364 | 15016 ft | 325 kts | 2° |
| 2026-05-08 13:00 | 49.67543 | -2.02242 | 15026 ft | 324 kts | 2° |
| 2026-05-08 13:00 | 49.69795 | -2.02121 | 15015 ft | 324 kts | 2° |
| 2026-05-08 13:01 | 49.72042 | -2.02000 | 15024 ft | 324 kts | 2° |
| 2026-05-08 13:01 | 49.74287 | -2.01881 | 15024 ft | 324 kts | 2° |
| 2026-05-08 13:01 | 49.76536 | -2.01761 | 15032 ft | 324 kts | 2° |
| 2026-05-08 13:01 | 49.78782 | -2.01641 | 15034 ft | 324 kts | 2° |
| 2026-05-08 13:02 | 49.81030 | -2.01521 | 15031 ft | 324 kts | 2° |
| 2026-05-08 13:02 | 49.83281 | -2.01400 | 15022 ft | 324 kts | 2° |
| 2026-05-08 13:02 | 49.85525 | -2.01280 | 15023 ft | 323 kts | 2° |
| 2026-05-08 13:02 | 49.87763 | -2.01160 | 15029 ft | 323 kts | 2° |
| 2026-05-08 13:03 | 49.90004 | -2.01039 | 15035 ft | 322 kts | 2° |
| 2026-05-08 13:03 | 49.92241 | -2.00919 | 15026 ft | 322 kts | 2° |
| 2026-05-08 13:03 | 49.94476 | -2.00799 | 15026 ft | 322 kts | 2° |
| 2026-05-08 13:03 | 49.96708 | -2.00679 | 15032 ft | 321 kts | 2° |
| 2026-05-08 13:04 | 49.98931 | -2.00484 | 15030 ft | 321 kts | 8° |
| 2026-05-08 13:04 | 50.01079 | -1.99604 | 15025 ft | 320 kts | 21° |
| 2026-05-08 13:04 | 50.03126 | -1.98290 | 15037 ft | 319 kts | 22° |
| 2026-05-08 13:04 | 50.05169 | -1.96959 | 15030 ft | 319 kts | 24° |
| 2026-05-08 13:05 | 50.07196 | -1.95583 | 15029 ft | 319 kts | 24° |
| 2026-05-08 13:05 | 50.09228 | -1.94207 | 15023 ft | 318 kts | 24° |
| 2026-05-08 13:05 | 50.11264 | -1.92825 | 15028 ft | 318 kts | 24° |
| 2026-05-08 13:05 | 50.13290 | -1.91450 | 15032 ft | 318 kts | 24° |
| 2026-05-08 13:06 | 50.15315 | -1.90074 | 15024 ft | 318 kts | 24° |
| 2026-05-08 13:06 | 50.17337 | -1.88698 | 15030 ft | 318 kts | 24° |
| 2026-05-08 13:06 | 50.19360 | -1.87321 | 15025 ft | 318 kts | 24° |
| 2026-05-08 13:06 | 50.21383 | -1.85942 | 15027 ft | 318 kts | 24° |
| 2026-05-08 13:07 | 50.23406 | -1.84562 | 15031 ft | 318 kts | 24° |
| 2026-05-08 13:07 | 50.25433 | -1.83178 | 15028 ft | 318 kts | 24° |
| 2026-05-08 13:07 | 50.27451 | -1.81799 | 15035 ft | 313 kts | 24° |
| 2026-05-08 13:07 | 50.29391 | -1.80472 | 15013 ft | 297 kts | 24° |
| 2026-05-08 13:08 | 50.31232 | -1.79197 | 15007 ft | 283 kts | 27° |
| 2026-05-08 13:08 | 50.32638 | -1.77204 | 15023 ft | 273 kts | 62° |
| 2026-05-08 13:08 | 50.33175 | -1.74418 | 15041 ft | 268 kts | 81° |
| 2026-05-08 13:08 | 50.33522 | -1.71564 | 15023 ft | 268 kts | 80° |
| 2026-05-08 13:09 | 50.33866 | -1.68715 | 15023 ft | 268 kts | 81° |
| 2026-05-08 13:09 | 50.34214 | -1.65860 | 15016 ft | 268 kts | 80° |
| 2026-05-08 13:09 | 50.34563 | -1.63003 | 15022 ft | 267 kts | 80° |
| 2026-05-08 13:09 | 50.34908 | -1.60157 | 15028 ft | 267 kts | 80° |
| 2026-05-08 13:10 | 50.35250 | -1.57309 | 15038 ft | 267 kts | 80° |
| 2026-05-08 13:10 | 50.35675 | -1.54481 | 15018 ft | 269 kts | 68° |
| 2026-05-08 13:10 | 50.36639 | -1.51986 | 15034 ft | 270 kts | 52° |
| 2026-05-08 13:10 | 50.37987 | -1.49954 | 15037 ft | 271 kts | 36° |
| 2026-05-08 13:11 | 50.39611 | -1.48435 | 14843 ft | 274 kts | 24° |
| 2026-05-08 13:11 | 50.41433 | -1.47645 | 14587 ft | 272 kts | 6° |
| 2026-05-08 13:11 | 50.43315 | -1.47691 | 14344 ft | 271 kts | 350° |
| 2026-05-08 13:11 | 50.45160 | -1.48196 | 14098 ft | 270 kts | 349° |
| 2026-05-08 13:12 | 50.46998 | -1.48733 | 13831 ft | 269 kts | 348° |
| 2026-05-08 13:12 | 50.48832 | -1.49298 | 13533 ft | 269 kts | 348° |
| 2026-05-08 13:12 | 50.50664 | -1.49861 | 13232 ft | 270 kts | 348° |
| 2026-05-08 13:12 | 50.52507 | -1.50428 | 12923 ft | 270 kts | 348° |
| 2026-05-08 13:13 | 50.54352 | -1.50995 | 12614 ft | 271 kts | 348° |
| 2026-05-08 13:13 | 50.56196 | -1.51563 | 12237 ft | 269 kts | 348° |
| 2026-05-08 13:13 | 50.58009 | -1.52121 | 11840 ft | 264 kts | 348° |
| 2026-05-08 13:13 | 50.59786 | -1.52670 | 11481 ft | 260 kts | 348° |
| 2026-05-08 13:14 | 50.61545 | -1.53212 | 11123 ft | 257 kts | 348° |
| 2026-05-08 13:14 | 50.63293 | -1.53752 | 10778 ft | 255 kts | 348° |
| 2026-05-08 13:14 | 50.65025 | -1.54248 | 10429 ft | 253 kts | 353° |
| 2026-05-08 13:14 | 50.66746 | -1.53985 | 10098 ft | 251 kts | 23° |
| 2026-05-08 13:15 | 50.68141 | -1.52418 | 9854 ft | 247 kts | 40° |
| 2026-05-08 13:15 | 50.69456 | -1.50673 | 9572 ft | 248 kts | 40° |
| 2026-05-08 13:15 | 50.70768 | -1.48925 | 9283 ft | 248 kts | 40° |
| 2026-05-08 13:15 | 50.72082 | -1.47175 | 9001 ft | 248 kts | 40° |
| 2026-05-08 13:16 | 50.73396 | -1.45430 | 8721 ft | 248 kts | 40° |
| 2026-05-08 13:16 | 50.74709 | -1.43686 | 8442 ft | 247 kts | 40° |
| 2026-05-08 13:16 | 50.76022 | -1.41938 | 8161 ft | 247 kts | 40° |
| 2026-05-08 13:16 | 50.77334 | -1.40188 | 7855 ft | 248 kts | 40° |
| 2026-05-08 13:17 | 50.78650 | -1.38442 | 7605 ft | 248 kts | 40° |
| 2026-05-08 13:17 | 50.79965 | -1.36693 | 7350 ft | 248 kts | 40° |
| 2026-05-08 13:17 | 50.81282 | -1.34941 | 7094 ft | 248 kts | 41° |
| 2026-05-08 13:17 | 50.82603 | -1.33192 | 6839 ft | 247 kts | 41° |
| 2026-05-08 13:18 | 50.83922 | -1.31451 | 6583 ft | 247 kts | 41° |
| 2026-05-08 13:18 | 50.85237 | -1.29726 | 6327 ft | 246 kts | 41° |
| 2026-05-08 13:18 | 50.86546 | -1.28011 | 6072 ft | 244 kts | 41° |
| 2026-05-08 13:18 | 50.87848 | -1.26306 | 5816 ft | 243 kts | 41° |
| 2026-05-08 13:19 | 50.89251 | -1.24855 | 5547 ft | 243 kts | 20° |
| 2026-05-08 13:19 | 50.90876 | -1.24164 | 5321 ft | 242 kts | 16° |
| 2026-05-08 13:19 | 50.92495 | -1.23486 | 5075 ft | 241 kts | 16° |
| 2026-05-08 13:19 | 50.94109 | -1.22819 | 4829 ft | 240 kts | 16° |
| 2026-05-08 13:20 | 50.95714 | -1.22157 | 4584 ft | 238 kts | 16° |
| 2026-05-08 13:20 | 50.97315 | -1.21500 | 4338 ft | 237 kts | 16° |
| 2026-05-08 13:20 | 50.98907 | -1.20855 | 4086 ft | 237 kts | 16° |
| 2026-05-08 13:20 | 51.00507 | -1.20220 | 3988 ft | 237 kts | 16° |
| 2026-05-08 13:21 | 51.02105 | -1.19582 | 3983 ft | 236 kts | 16° |
| 2026-05-08 13:21 | 51.03700 | -1.18970 | 3981 ft | 236 kts | 10° |
| 2026-05-08 13:21 | 51.05274 | -1.19427 | 3985 ft | 232 kts | 329° |
| 2026-05-08 13:21 | 51.06264 | -1.21334 | 3997 ft | 225 kts | 292° |
| 2026-05-08 13:22 | 51.06839 | -1.23618 | 3964 ft | 222 kts | 291° |
| 2026-05-08 13:22 | 51.07412 | -1.25902 | 3803 ft | 223 kts | 291° |
| 2026-05-08 13:22 | 51.07975 | -1.28173 | 3552 ft | 220 kts | 290° |
| 2026-05-08 13:22 | 51.08070 | -1.30507 | 3266 ft | 212 kts | 249° |
| 2026-05-08 13:23 | 51.07187 | -1.32240 | 2924 ft | 202 kts | 207° |
| 2026-05-08 13:23 | 51.05959 | -1.33144 | 2533 ft | 190 kts | 201° |
| 2026-05-08 13:23 | 51.04756 | -1.33850 | 2148 ft | 180 kts | 184° |
| 2026-05-08 13:23 | 51.03536 | -1.33952 | 1833 ft | 171 kts | 180° |
| 2026-05-08 13:24 | 51.02397 | -1.34041 | 1701 ft | 158 kts | 179° |
| 2026-05-08 13:24 | 51.01313 | -1.34119 | 1485 ft | 152 kts | 179° |
| 2026-05-08 13:24 | 51.00270 | -1.34193 | 1212 ft | 147 kts | 180° |
| 2026-05-08 13:24 | 50.99305 | -1.34261 | 912 ft | 133 kts | 179° |
| 2026-05-08 13:25 | 50.98416 | -1.34321 | 657 ft | 122 kts | 179° |
| 2026-05-08 13:25 | 50.97603 | -1.34417 | 478 ft | 115 kts | 189° |
| 2026-05-08 13:25 | 50.96839 | -1.34694 | 308 ft | 112 kts | 193° |
| 2026-05-08 13:25 | 50.96101 | -1.35083 | 161 ft | 112 kts | 196° |
| 2026-05-08 13:26 | 50.95365 | -1.35491 | 40 ft | 106 kts | 200° |
| 2026-05-08 13:26 | 50.94850 | -1.35782 | 40 ft | 38 kts | 194° |
| 2026-05-08 13:26 | 50.94632 | -1.35903 | 39 ft | 22 kts | 201° |
| 2026-05-08 13:26 | 50.94569 | -1.35998 | 39 ft | 12 kts | 290° |
| 2026-05-08 13:27 | 50.94607 | -1.36120 | 40 ft | 12 kts | 333° |
| 2026-05-08 13:27 | 50.94675 | -1.36132 | 41 ft | 9 kts | 19° |
| 2026-05-08 13:27 | 50.94752 | -1.36090 | 41 ft | 14 kts | 19° |
| 2026-05-08 13:27 | 50.94868 | -1.36025 | 41 ft | 20 kts | 18° |
| 2026-05-08 13:28 | 50.95004 | -1.35950 | 41 ft | 21 kts | 20° |
| 2026-05-08 13:28 | 50.95145 | -1.35870 | 41 ft | 21 kts | 19° |
| 2026-05-08 13:28 | 50.95286 | -1.35792 | 40 ft | 17 kts | 20° |
| 2026-05-08 13:28 | 50.95366 | -1.35747 | 40 ft | 5 kts | 19° |
| 2026-05-08 13:29 | 50.95388 | -1.35768 | 40 ft | 3 kts | 286° |
| 2026-05-08 13:29 | 50.95395 | -1.35802 | 41 ft | 2 kts | 289° |
| 2026-05-08 13:29 | 50.95399 | -1.35820 | 41 ft | 0 kts | 289° |